createdAt,value
2022-09-24T00:02:32.379Z,6.72
2022-09-24T00:05:17.893Z,7.53
2022-09-24T00:08:03.325Z,6.83
2022-09-24T00:10:49.104Z,6.73
2022-09-24T00:13:35.664Z,7.46
2022-09-24T00:16:23.633Z,7.18
2022-09-24T00:19:12.194Z,7.95
2022-09-24T00:21:57.713Z,7.12
2022-09-24T00:25:01.590Z,6.83
2022-09-24T00:27:46.864Z,7.80
2022-09-24T00:30:32.557Z,7.87
2022-09-24T00:33:18.408Z,6.65
2022-09-24T00:36:05.829Z,7.78
2022-09-24T00:38:53.865Z,7.50
2022-09-24T00:41:42.289Z,6.82
2022-09-24T00:44:45.946Z,7.85
2022-09-24T00:47:40.310Z,7.79
2022-09-24T00:50:31.616Z,6.81
2022-09-24T00:53:20.194Z,7.66
2022-09-24T00:56:08.404Z,6.63
2022-09-24T00:58:57.400Z,7.52
2022-09-24T01:01:47.172Z,7.54
2022-09-24T01:04:32.925Z,6.34
2022-09-24T01:07:18.223Z,7.52
2022-09-24T01:10:04.909Z,7.33
2022-09-24T01:13:01.748Z,7.39
2022-09-24T01:15:58.480Z,6.27
2022-09-24T01:18:55.273Z,7.38
2022-09-24T01:21:50.757Z,6.82
2022-09-24T01:24:52.421Z,7.44
2022-09-24T01:28:18.314Z,7.44
2022-09-24T01:31:46.862Z,7.42
2022-09-24T01:34:47.062Z,7.28
2022-09-24T01:37:34.947Z,7.42
2022-09-24T01:40:24.366Z,7.41
2022-09-24T01:43:11.784Z,6.90
2022-09-24T01:46:00.986Z,7.37
2022-09-24T01:48:47.006Z,7.09
2022-09-24T01:51:45.507Z,6.10
2022-09-24T01:54:42.925Z,6.89
2022-09-24T01:57:35.987Z,6.23
2022-09-24T02:00:22.372Z,7.13
2022-09-24T02:03:19.157Z,4.02
2022-09-24T02:06:14.286Z,6.02
2022-09-24T02:08:59.542Z,7.11
2022-09-24T02:11:45.146Z,6.83
2022-09-24T02:14:32.529Z,6.17
2022-09-24T02:17:18.926Z,6.72
2022-09-24T02:20:11.406Z,6.04
2022-09-24T02:22:57.459Z,7.19
2022-09-24T02:25:52.037Z,7.12
2022-09-24T02:28:37.837Z,6.17
2022-09-24T02:31:37.833Z,6.98
2022-09-24T02:34:52.079Z,7.32
2022-09-24T02:37:40.204Z,7.06
2022-09-24T02:40:26.063Z,7.34
2022-09-24T02:43:11.188Z,7.32
2022-09-24T02:45:56.914Z,6.53
2022-09-24T02:48:42.193Z,7.23
2022-09-24T02:51:28.173Z,7.46
2022-09-24T02:54:13.793Z,6.29
2022-09-24T02:56:59.279Z,5.86
2022-09-24T02:59:45.600Z,6.17
2022-09-24T03:02:31.158Z,7.06
2022-09-24T03:05:18.289Z,7.32
2022-09-24T03:08:04.269Z,7.27
2022-09-24T03:10:51.183Z,6.92
2022-09-24T03:13:38.146Z,7.32
2022-09-24T03:16:23.699Z,7.33
2022-09-24T03:19:09.006Z,6.27
2022-09-24T03:21:54.349Z,7.01
2022-09-24T03:24:39.948Z,7.06
2022-09-24T03:27:25.213Z,5.94
2022-09-24T03:30:29.667Z,6.76
2022-09-24T03:33:15.076Z,5.89
2022-09-24T03:36:09.706Z,7.14
2022-09-24T03:38:56.937Z,7.07
2022-09-24T03:41:42.230Z,7.11
2022-09-24T03:44:28.644Z,6.05
2022-09-24T03:47:14.101Z,5.66
2022-09-24T03:49:59.259Z,7.18
2022-09-24T03:52:44.525Z,6.04
2022-09-24T03:55:30.051Z,6.84
2022-09-24T03:58:16.226Z,5.58
2022-09-24T04:01:02.050Z,7.01
2022-09-24T04:03:48.936Z,6.67
2022-09-24T04:06:35.277Z,5.92
2022-09-24T04:09:20.888Z,6.86
2022-09-24T04:12:06.573Z,6.87
2022-09-24T04:14:52.227Z,6.73
2022-09-24T04:17:37.648Z,6.61
2022-09-24T04:20:24.598Z,6.68
2022-09-24T04:23:10.628Z,5.99
2022-09-24T04:25:56.427Z,6.84
2022-09-24T04:28:41.825Z,6.93
2022-09-24T04:31:27.410Z,5.58
2022-09-24T04:34:12.840Z,6.95
2022-09-24T04:36:58.367Z,7.04
2022-09-24T04:39:43.706Z,5.75
2022-09-24T04:42:29.225Z,6.77
2022-09-24T04:45:20.311Z,7.15
2022-09-24T04:48:05.915Z,7.31
2022-09-24T04:50:51.773Z,6.55
2022-09-24T04:53:37.687Z,6.36
2022-09-24T04:56:23.173Z,7.28
2022-09-24T04:59:09.126Z,7.48
2022-09-24T05:01:55.138Z,7.78
2022-09-24T05:04:41.031Z,6.46
2022-09-24T05:07:26.261Z,7.61
2022-09-24T05:10:12.101Z,7.01
2022-09-24T05:12:57.871Z,6.41
2022-09-24T05:15:43.608Z,6.71
2022-09-24T05:18:29.757Z,7.02
2022-09-24T05:21:15.840Z,7.52
2022-09-24T05:24:01.616Z,7.49
2022-09-24T05:27:05.787Z,7.02
2022-09-24T05:29:51.152Z,7.45
2022-09-24T05:32:36.729Z,6.21
2022-09-24T05:35:23.832Z,7.00
2022-09-24T05:38:09.561Z,7.57
2022-09-24T05:40:54.963Z,7.52
2022-09-24T05:43:41.151Z,7.43
2022-09-24T05:46:26.994Z,6.50
2022-09-24T05:49:12.417Z,7.55
2022-09-24T05:51:57.939Z,7.64
2022-09-24T05:54:43.790Z,6.33
2022-09-24T05:57:29.121Z,7.23
2022-09-24T06:00:15.009Z,7.39
2022-09-24T06:03:07.983Z,7.55
2022-09-24T06:05:53.795Z,7.57
2022-09-24T06:08:39.188Z,6.44
2022-09-24T06:11:25.644Z,7.68
2022-09-24T06:14:12.251Z,7.53
2022-09-24T06:16:57.802Z,7.82
2022-09-24T06:19:43.244Z,6.63
2022-09-24T06:22:29.400Z,7.57
2022-09-24T06:25:15.290Z,7.88
2022-09-24T06:28:03.797Z,7.85
2022-09-24T06:30:49.514Z,7.78
2022-09-24T06:33:35.502Z,8.72
2022-09-24T06:36:21.412Z,9.00
2022-09-24T06:39:07.768Z,9.19
2022-09-24T06:41:53.674Z,8.08
2022-09-24T06:44:42.477Z,8.86
2022-09-24T06:47:30.136Z,9.28
2022-09-24T06:50:15.586Z,9.55
2022-09-24T06:53:05.405Z,9.78
2022-09-24T06:55:51.253Z,9.48
2022-09-24T06:58:36.847Z,9.16
2022-09-24T07:01:22.713Z,9.43
2022-09-24T07:04:08.124Z,9.55
2022-09-24T07:07:11.993Z,10.78
2022-09-24T07:09:57.837Z,10.06
2022-09-24T07:12:43.721Z,10.43
2022-09-24T07:15:30.159Z,11.39
2022-09-24T07:18:24.358Z,11.60
2022-09-24T07:21:12.242Z,11.74
2022-09-24T07:23:59.489Z,11.92
2022-09-24T07:26:45.221Z,11.67
2022-09-24T07:29:31.054Z,11.09
2022-09-24T07:32:20.171Z,12.28
2022-09-24T07:35:06.234Z,12.14
2022-09-24T07:38:03.121Z,12.53
2022-09-24T07:40:49.251Z,11.57
2022-09-24T07:43:34.883Z,12.85
2022-09-24T07:46:21.402Z,12.51
2022-09-24T07:49:06.881Z,12.29
2022-09-24T07:51:52.348Z,13.32
2022-09-24T07:54:41.424Z,13.44
2022-09-24T07:57:28.039Z,13.28
2022-09-24T08:00:14.526Z,12.38
2022-09-24T08:03:02.262Z,13.03
2022-09-24T08:05:48.166Z,13.51
2022-09-24T08:08:33.525Z,13.57
2022-09-24T08:11:19.919Z,13.75
2022-09-24T08:14:05.950Z,13.75
2022-09-24T08:16:51.399Z,12.52
2022-09-24T08:19:36.741Z,12.56
2022-09-24T08:22:24.346Z,13.59
2022-09-24T08:25:10.480Z,13.51
2022-09-24T08:27:55.770Z,13.41
2022-09-24T08:30:42.531Z,13.14
2022-09-24T08:33:29.378Z,13.04
2022-09-24T08:36:15.013Z,13.39
2022-09-24T08:39:00.383Z,12.34
2022-09-24T08:41:56.125Z,12.34
2022-09-24T08:45:03.568Z,13.36
2022-09-24T08:47:55.102Z,13.35
2022-09-24T08:51:01.350Z,12.66
2022-09-24T08:53:48.713Z,13.44
2022-09-24T08:56:37.354Z,13.16
2022-09-24T08:59:33.269Z,13.45
2022-09-24T09:02:42.204Z,13.46
2022-09-24T09:05:40.323Z,13.47
2022-09-24T09:08:50.422Z,12.44
2022-09-24T09:11:33.168Z,13.53
2022-09-24T09:14:37.018Z,13.56
2022-09-24T09:17:29.826Z,12.74
2022-09-24T09:20:24.361Z,12.92
2022-09-24T09:23:20.612Z,13.66
2022-09-24T09:26:11.577Z,12.80
2022-09-24T09:29:01.007Z,13.72
2022-09-24T09:31:53.883Z,13.95
2022-09-24T09:35:03.515Z,14.02
2022-09-24T09:38:09.820Z,13.92
2022-09-24T09:41:14.597Z,13.09
2022-09-24T09:44:10.903Z,13.87
2022-09-24T09:47:25.944Z,13.81
2022-09-24T09:50:39.599Z,13.15
2022-09-24T09:53:33.253Z,13.58
2022-09-24T09:56:23.983Z,13.34
2022-09-24T09:59:12.635Z,13.42
2022-09-24T10:02:01.259Z,13.01
2022-09-24T10:04:46.812Z,13.28
2022-09-24T10:07:32.977Z,12.48
2022-09-24T10:10:24.057Z,12.20
2022-09-24T10:13:13.384Z,13.31
2022-09-24T10:16:04.523Z,12.87
2022-09-24T10:18:51.392Z,13.29
2022-09-24T10:21:37.507Z,13.20
2022-09-24T10:24:26.241Z,13.20
2022-09-24T10:27:24.215Z,13.55
2022-09-24T10:30:34.785Z,13.28
2022-09-24T10:33:20.723Z,13.34
2022-09-24T10:36:20.808Z,13.05
2022-09-24T10:39:15.751Z,12.27
2022-09-24T10:42:01.293Z,13.52
2022-09-24T10:44:52.606Z,12.27
2022-09-24T10:48:08.894Z,12.77
2022-09-24T10:51:11.921Z,13.67
2022-09-24T10:54:27.762Z,13.84
2022-09-24T10:57:39.838Z,14.01
2022-09-24T11:00:40.653Z,13.83
2022-09-24T11:03:47.871Z,14.30
2022-09-24T11:06:45.476Z,14.37
2022-09-24T11:09:49.617Z,14.44
2022-09-24T11:13:07.343Z,14.40
2022-09-24T11:16:14.932Z,14.32
2022-09-24T11:19:15.020Z,14.24
2022-09-24T11:22:33.518Z,14.20
2022-09-24T11:25:41.000Z,14.13
2022-09-24T11:28:41.363Z,14.09
2022-09-24T11:31:36.136Z,12.97
2022-09-24T11:34:45.032Z,14.03
2022-09-24T11:37:57.322Z,14.12
2022-09-24T11:40:53.171Z,13.82
2022-09-24T11:44:03.076Z,14.16
2022-09-24T11:47:34.561Z,14.19
2022-09-24T11:50:34.982Z,14.22
2022-09-24T11:53:46.694Z,13.05
2022-09-24T11:56:37.281Z,14.23
2022-09-24T11:59:39.297Z,14.15
2022-09-24T12:02:37.184Z,13.95
2022-09-24T12:05:28.603Z,13.33
2022-09-24T12:08:19.124Z,14.43
2022-09-24T12:11:10.499Z,14.46
2022-09-24T12:14:03.523Z,14.49
2022-09-24T12:16:57.035Z,14.16
2022-09-24T12:19:53.986Z,14.20
2022-09-24T12:22:41.712Z,13.54
2022-09-24T12:25:32.505Z,14.35
2022-09-24T12:28:39.002Z,14.54
2022-09-24T12:31:46.075Z,14.57
2022-09-24T12:34:43.195Z,14.60
2022-09-24T12:37:40.179Z,14.25
2022-09-24T12:40:34.982Z,14.69
2022-09-24T12:43:34.518Z,14.46
2022-09-24T12:46:24.587Z,14.51
2022-09-24T12:49:25.363Z,14.74
2022-09-24T12:52:24.924Z,13.64
2022-09-24T12:55:31.804Z,14.38
2022-09-24T12:58:30.919Z,14.77
2022-09-24T13:01:32.824Z,13.19
2022-09-24T13:04:18.373Z,14.79
2022-09-24T13:07:03.783Z,14.53
2022-09-24T13:09:49.801Z,14.41
2022-09-24T13:12:35.107Z,13.88
2022-09-24T13:15:40.607Z,14.55
2022-09-24T13:18:26.721Z,14.95
2022-09-24T13:21:23.473Z,14.52
2022-09-24T13:24:12.824Z,14.71
2022-09-24T13:27:41.925Z,14.83
2022-09-24T13:30:30.206Z,15.02
2022-09-24T13:33:24.204Z,13.65
2022-09-24T13:36:17.533Z,14.58
2022-09-24T13:39:24.915Z,14.88
2022-09-24T13:42:58.212Z,14.81
2022-09-24T13:45:45.483Z,14.78
2022-09-24T13:48:41.223Z,14.72
2022-09-24T13:51:31.386Z,14.53
2022-09-24T13:54:19.743Z,14.74
2022-09-24T13:57:20.012Z,14.67
2022-09-24T14:00:22.112Z,14.09
2022-09-24T14:03:23.140Z,14.66
2022-09-24T14:06:14.445Z,13.61
2022-09-24T14:09:01.525Z,14.50
2022-09-24T14:11:56.363Z,14.16
2022-09-24T14:14:51.021Z,14.34
2022-09-24T14:17:39.461Z,14.57
2022-09-24T14:20:30.712Z,14.25
2022-09-24T14:23:22.645Z,14.49
2022-09-24T14:26:15.094Z,14.51
2022-09-24T14:29:06.784Z,13.39
2022-09-24T14:31:58.364Z,14.17
2022-09-24T14:34:44.056Z,14.24
2022-09-24T14:37:33.135Z,14.53
2022-09-24T14:40:21.856Z,14.30
2022-09-24T14:43:15.898Z,14.50
2022-09-24T14:46:15.720Z,14.21
2022-09-24T14:49:06.775Z,14.30
2022-09-24T14:51:57.909Z,14.43
2022-09-24T14:54:44.001Z,13.94
2022-09-24T14:57:37.461Z,14.00
2022-09-24T15:00:30.342Z,14.46
2022-09-24T15:03:20.776Z,14.26
2022-09-24T15:06:30.307Z,14.49
2022-09-24T15:09:29.978Z,14.51
2022-09-24T15:12:30.756Z,14.49
2022-09-24T15:15:26.521Z,14.53
2022-09-24T15:18:12.275Z,14.35
2022-09-24T15:20:59.783Z,14.25
2022-09-24T15:23:45.269Z,14.26
2022-09-24T15:26:34.092Z,14.46
2022-09-24T15:29:24.520Z,13.93
2022-09-24T15:32:19.555Z,14.26
2022-09-24T15:35:09.813Z,14.22
2022-09-24T15:37:55.493Z,14.05
2022-09-24T15:40:42.333Z,13.82
2022-09-24T15:43:27.901Z,13.72
2022-09-24T15:46:13.532Z,13.48
2022-09-24T15:48:59.183Z,12.88
2022-09-24T15:51:44.926Z,12.47
2022-09-24T15:54:30.296Z,12.84
2022-09-24T15:57:16.711Z,13.31
2022-09-24T16:00:02.274Z,13.06
2022-09-24T16:02:56.789Z,13.42
2022-09-24T16:05:42.728Z,13.26
2022-09-24T16:08:28.667Z,12.39
2022-09-24T16:11:14.039Z,13.08
2022-09-24T16:13:59.547Z,11.84
2022-09-24T16:16:44.958Z,12.86
2022-09-24T16:19:30.366Z,11.71
2022-09-24T16:22:19.690Z,12.66
2022-09-24T16:25:06.836Z,12.79
2022-09-24T16:27:52.202Z,12.56
2022-09-24T16:30:38.911Z,11.59
2022-09-24T16:33:26.105Z,12.76
2022-09-24T16:36:12.196Z,12.64
2022-09-24T16:38:58.213Z,12.17
2022-09-24T16:41:44.442Z,12.54
2022-09-24T16:44:29.962Z,12.34
2022-09-24T16:47:16.475Z,11.41
2022-09-24T16:50:01.677Z,12.27
2022-09-24T16:52:49.295Z,11.74
2022-09-24T16:55:35.110Z,11.23
2022-09-24T16:58:20.633Z,11.97
2022-09-24T17:01:07.783Z,12.23
2022-09-24T17:03:55.575Z,12.22
2022-09-24T17:06:44.597Z,11.84
2022-09-24T17:09:48.893Z,11.89
2022-09-24T17:12:34.600Z,10.97
2022-09-24T17:15:20.998Z,11.99
2022-09-24T17:18:06.269Z,10.75
2022-09-24T17:21:00.247Z,11.80
2022-09-24T17:23:45.677Z,11.80
2022-09-24T17:26:31.054Z,11.83
2022-09-24T17:29:20.574Z,11.79
2022-09-24T17:32:06.479Z,10.64
2022-09-24T17:34:51.969Z,11.60
2022-09-24T17:37:37.367Z,11.40
2022-09-24T17:40:24.477Z,11.26
2022-09-24T17:43:10.128Z,11.49
2022-09-24T17:46:02.958Z,11.02
2022-09-24T17:48:52.562Z,11.08
2022-09-24T17:51:38.948Z,10.38
2022-09-24T17:54:26.707Z,11.20
2022-09-24T17:57:12.167Z,11.18
2022-09-24T17:59:57.381Z,10.58
2022-09-24T18:02:42.897Z,10.64
2022-09-24T18:05:28.197Z,10.96
2022-09-24T18:08:14.009Z,11.26
2022-09-24T18:11:09.985Z,11.12
2022-09-24T18:13:58.235Z,10.23
2022-09-24T18:16:44.456Z,11.08
2022-09-24T18:19:31.920Z,11.39
2022-09-24T18:22:18.625Z,11.38
2022-09-24T18:25:06.147Z,11.23
2022-09-24T18:27:52.133Z,10.79
2022-09-24T18:30:39.044Z,11.19
2022-09-24T18:33:25.226Z,11.07
2022-09-24T18:36:15.983Z,10.66
2022-09-24T18:39:02.148Z,10.76
2022-09-24T18:41:47.373Z,10.53
2022-09-24T18:44:33.822Z,10.49
2022-09-24T18:47:20.447Z,10.55
2022-09-24T18:50:06.427Z,10.41
2022-09-24T18:52:51.819Z,10.59
2022-09-24T18:55:42.702Z,10.11
2022-09-24T18:58:28.472Z,10.35
2022-09-24T19:01:15.601Z,9.47
2022-09-24T19:04:02.029Z,10.29
2022-09-24T19:06:51.927Z,9.83
2022-09-24T19:09:37.562Z,10.88
2022-09-24T19:12:22.883Z,9.71
2022-09-24T19:15:08.559Z,9.79
2022-09-24T19:17:53.910Z,10.82
2022-09-24T19:20:41.274Z,10.65
2022-09-24T19:23:26.881Z,10.89
2022-09-24T19:26:15.414Z,9.70
2022-09-24T19:29:01.387Z,10.51
2022-09-24T19:31:48.810Z,9.92
2022-09-24T19:34:34.367Z,9.84
2022-09-24T19:37:20.492Z,10.74
2022-09-24T19:40:06.947Z,9.53
2022-09-24T19:42:52.789Z,9.95
2022-09-24T19:45:38.681Z,10.55
2022-09-24T19:48:26.297Z,10.76
2022-09-24T19:51:15.506Z,9.54
2022-09-24T19:54:04.073Z,10.76
2022-09-24T19:56:49.513Z,9.56
2022-09-24T19:59:34.929Z,9.77
2022-09-24T20:02:21.610Z,10.66
2022-09-24T20:05:09.132Z,10.46
2022-09-24T20:07:55.285Z,10.46
2022-09-24T20:10:42.194Z,10.52
2022-09-24T20:13:28.468Z,10.27
2022-09-24T20:16:16.332Z,10.25
2022-09-24T20:19:03.348Z,10.01
2022-09-24T20:21:48.891Z,10.00
2022-09-24T20:24:34.380Z,9.65
2022-09-24T20:27:38.503Z,10.32
2022-09-24T20:30:23.962Z,10.38
2022-09-24T20:33:10.466Z,9.15
2022-09-24T20:36:02.312Z,10.01
2022-09-24T20:38:48.125Z,10.17
2022-09-24T20:41:34.100Z,10.15
2022-09-24T20:44:21.512Z,9.66
2022-09-24T20:47:07.978Z,9.68
2022-09-24T20:49:54.815Z,8.66
2022-09-24T20:52:40.336Z,9.96
2022-09-24T20:55:25.834Z,9.98
2022-09-24T20:58:11.543Z,9.79
2022-09-24T21:00:57.371Z,10.10
2022-09-24T21:03:45.267Z,9.18
2022-09-24T21:06:31.560Z,9.57
2022-09-24T21:09:17.563Z,9.70
2022-09-24T21:12:03.718Z,10.15
2022-09-24T21:14:49.631Z,10.14
2022-09-24T21:17:35.432Z,8.89
2022-09-24T21:20:20.944Z,10.12
2022-09-24T21:23:06.357Z,9.84
2022-09-24T21:25:54.821Z,9.78
2022-09-24T21:28:42.529Z,10.00
2022-09-24T21:31:30.157Z,10.02
2022-09-24T21:34:17.643Z,9.91
2022-09-24T21:37:03.054Z,9.90
2022-09-24T21:39:48.241Z,9.98
2022-09-24T21:42:35.809Z,8.81
2022-09-24T21:45:21.269Z,10.01
2022-09-24T21:48:07.395Z,9.72
2022-09-24T21:51:03.374Z,9.81
2022-09-24T21:53:50.989Z,9.98
2022-09-24T21:56:36.486Z,9.98
2022-09-24T21:59:40.713Z,9.71
2022-09-24T22:02:26.054Z,9.42
2022-09-24T22:05:11.429Z,9.89
2022-09-24T22:07:56.993Z,9.94
2022-09-24T22:10:44.141Z,9.91
2022-09-24T22:13:31.077Z,9.98
2022-09-24T22:16:16.243Z,9.16
2022-09-24T22:19:06.760Z,9.93
2022-09-24T22:21:52.493Z,9.94
2022-09-24T22:24:37.772Z,8.87
2022-09-24T22:27:23.561Z,9.87
2022-09-24T22:30:10.237Z,9.13
2022-09-24T22:32:57.328Z,9.89
2022-09-24T22:35:49.758Z,9.76
2022-09-24T22:38:35.288Z,8.70
2022-09-24T22:41:20.656Z,9.52
2022-09-24T22:44:06.971Z,9.87
2022-09-24T22:46:52.578Z,9.80
2022-09-24T22:49:38.018Z,9.40
2022-09-24T22:52:23.401Z,8.69
2022-09-24T22:55:09.765Z,9.80
2022-09-24T22:57:55.621Z,9.92
2022-09-24T23:00:42.106Z,9.90
2022-09-24T23:03:27.755Z,9.82
2022-09-24T23:06:13.457Z,8.53
2022-09-24T23:08:59.399Z,8.78
2022-09-24T23:11:45.069Z,8.62
2022-09-24T23:14:30.361Z,8.58
2022-09-24T23:17:15.932Z,9.74
2022-09-24T23:20:02.933Z,9.37
2022-09-24T23:22:48.901Z,9.48
2022-09-24T23:25:34.447Z,9.24
2022-09-24T23:28:20.118Z,9.54
2022-09-24T23:31:08.058Z,8.30
2022-09-24T23:33:55.518Z,9.48
2022-09-24T23:36:41.675Z,8.25
2022-09-24T23:39:27.465Z,9.16
2022-09-24T23:42:12.749Z,7.78
2022-09-24T23:44:58.249Z,7.75
2022-09-24T23:47:43.666Z,9.05
2022-09-24T23:50:29.158Z,8.82
2022-09-24T23:53:15.802Z,9.09
2022-09-24T23:56:01.938Z,8.10
2022-09-24T23:58:47.408Z,8.92
